Time;durP1;ratioP1;P1;durP2;ratioP2;P2;SDS_P1;SDS_P2;PMS_P1;PMS_P2;Temp;Humidity;BMP_temperature;BMP_pressure;BME280_temperature;BME280_humidity;BME280_pressure;Samples;Min_cycle;Max_cycle;Signal;HPM_P1;HPM_P2
2023/03/21 00:02:09;;;;;;;11.50;3.38;;;;;;;;;;5142470;27;20679;-66
2023/03/21 00:04:35;;;;;;;8.88;3.30;;;;;;;;;;5144112;27;20043;-68
2023/03/21 00:07:01;;;;;;;9.77;3.15;;;;;;;;;;5144392;27;20047;-68
2023/03/21 00:09:29;;;;;;;8.88;3.28;;;;;;;;;;5152302;27;20322;-67
2023/03/21 00:12:00;;;;;;;16.23;3.22;;;;;;;;;;5146228;27;20054;-66
2023/03/21 00:14:29;;;;;;;8.73;2.88;;;;;;;;;;5146956;27;20141;-66
2023/03/21 00:16:57;;;;;;;12.70;3.60;;;;;;;;;;5148329;27;20058;-66
2023/03/21 00:19:25;;;;;;;6.90;2.95;;;;;;;;;;5144393;27;20062;-65
2023/03/21 00:21:54;;;;;;;14.35;3.55;;;;;;;;;;5147008;27;20059;-66
2023/03/21 00:24:21;;;;;;;8.75;3.30;;;;;;;;;;5131148;27;20047;-66
2023/03/21 00:26:49;;;;;;;9.52;2.90;;;;;;;;;;5146773;27;20570;-65
2023/03/21 00:29:16;;;;;;;10.63;2.90;;;;;;;;;;5149884;27;20394;-65
2023/03/21 00:31:45;;;;;;;9.90;3.00;;;;;;;;;;5147861;27;20054;-67
2023/03/21 00:34:11;;;;;;;6.97;3.15;;;;;;;;;;5134339;27;20137;-66
2023/03/21 00:36:37;;;;;;;11.85;3.80;;;;;;;;;;5150699;27;20070;-64
2023/03/21 00:39:05;;;;;;;11.60;3.38;;;;;;;;;;5129415;27;20490;-67
2023/03/21 00:41:32;;;;;;;9.63;3.67;;;;;;;;;;5139433;27;20066;-65
2023/03/21 00:43:58;;;;;;;9.65;3.40;;;;;;;;;;5140893;27;20070;-66
2023/03/21 00:46:24;;;;;;;9.85;3.30;;;;;;;;;;5145053;27;20126;-65
2023/03/21 00:48:50;;;;;;;8.68;3.22;;;;;;;;;;5149420;27;20434;-65
2023/03/21 00:51:25;;;;;;;8.10;3.70;;;;;;;;;;5142285;27;20155;-67
2023/03/21 00:53:57;;;;;;;11.75;3.25;;;;;;;;;;5143482;27;20438;-67
2023/03/21 00:56:23;;;;;;;12.02;4.10;;;;;;;;;;5141626;27;20126;-66
2023/03/21 00:58:50;;;;;;;9.45;3.95;;;;;;;;;;5143099;27;20131;-66
2023/03/21 01:01:16;;;;;;;9.85;4.18;;;;;;;;;;5142666;27;20058;-67
2023/03/21 01:03:49;;;;;;;8.80;3.97;;;;;;;;;;5148115;27;20046;-64
2023/03/21 01:06:18;;;;;;;12.35;4.07;;;;;;;;;;5131606;27;20050;-66
2023/03/21 01:08:45;;;;;;;10.43;4.60;;;;;;;;;;5143793;27;20067;-65
2023/03/21 01:11:16;;;;;;;9.85;4.28;;;;;;;;;;5143200;27;20057;-70
2023/03/21 01:13:42;;;;;;;14.75;4.03;;;;;;;;;;5130678;27;20081;-65
2023/03/21 01:16:09;;;;;;;8.40;3.50;;;;;;;;;;5142105;27;20452;-66
2023/03/21 01:18:36;;;;;;;7.13;3.58;;;;;;;;;;5126160;27;20467;-67
2023/03/21 01:21:07;;;;;;;8.40;3.42;;;;;;;;;;5145321;27;20055;-68
2023/03/21 01:23:33;;;;;;;7.97;3.90;;;;;;;;;;5148643;27;20056;-65
2023/03/21 01:25:59;;;;;;;8.10;3.50;;;;;;;;;;5148562;27;20058;-66
2023/03/21 01:28:27;;;;;;;10.90;3.60;;;;;;;;;;5146883;27;20027;-65
2023/03/21 01:30:53;;;;;;;6.60;3.15;;;;;;;;;;5134754;27;20050;-65
2023/03/21 01:33:23;;;;;;;8.60;3.17;;;;;;;;;;5147860;27;20051;-70
2023/03/21 01:35:50;;;;;;;6.53;2.70;;;;;;;;;;5148131;27;20111;-66
2023/03/21 01:38:15;;;;;;;9.40;3.30;;;;;;;;;;5147200;27;20762;-65
2023/03/21 01:40:50;;;;;;;12.80;3.33;;;;;;;;;;5147067;27;20038;-67
2023/03/21 01:43:39;;;;;;;14.68;2.80;;;;;;;;;;5148517;27;20054;-64
2023/03/21 01:46:34;;;;;;;8.05;2.88;;;;;;;;;;5141835;27;20129;-64
2023/03/21 01:49:09;;;;;;;7.60;2.75;;;;;;;;;;5143320;27;20115;-64
2023/03/21 01:51:41;;;;;;;9.95;2.80;;;;;;;;;;5123182;27;20054;-63
2023/03/21 01:55:22;;;;;;;6.55;2.70;;;;;;;;;;5145408;27;20371;-65
2023/03/21 01:59:03;;;;;;;6.03;2.72;;;;;;;;;;5138070;27;20087;-65
2023/03/21 02:02:50;;;;;;;7.72;3.03;;;;;;;;;;5147187;27;20050;-64
2023/03/21 02:06:30;;;;;;;6.03;2.67;;;;;;;;;;5140807;27;20070;-64
2023/03/21 02:10:11;;;;;;;8.90;3.25;;;;;;;;;;5139647;27;20079;-65
2023/03/21 02:13:52;;;;;;;9.88;3.42;;;;;;;;;;5139576;27;20042;-64
2023/03/21 02:17:23;;;;;;;8.88;3.17;;;;;;;;;;5136927;27;20505;-66
2023/03/21 02:20:56;;;;;;;7.50;3.35;;;;;;;;;;5141308;27;20550;-64
2023/03/21 02:24:41;;;;;;;10.32;3.28;;;;;;;;;;5145424;27;20074;-66
2023/03/21 02:28:10;;;;;;;11.05;3.40;;;;;;;;;;5140464;27;20069;-65
2023/03/21 02:31:33;;;;;;;11.00;3.50;;;;;;;;;;5143625;27;20043;-64
2023/03/21 02:35:18;;;;;;;12.10;3.50;;;;;;;;;;5146500;27;20046;-64
2023/03/21 02:38:25;;;;;;;14.23;3.83;;;;;;;;;;5143218;27;20050;-64
2023/03/21 02:41:43;;;;;;;6.45;3.30;;;;;;;;;;5139949;27;20051;-66
2023/03/21 02:45:32;;;;;;;9.20;3.38;;;;;;;;;;5137562;27;20054;-66
2023/03/21 02:49:28;;;;;;;10.27;4.40;;;;;;;;;;5141113;27;20066;-65
2023/03/21 02:53:08;;;;;;;15.68;7.20;;;;;;;;;;5139134;27;20050;-65
2023/03/21 02:56:49;;;;;;;13.25;5.82;;;;;;;;;;5139967;27;20049;-65
2023/03/21 03:00:30;;;;;;;9.13;3.97;;;;;;;;;;5144387;27;20038;-65
2023/03/21 03:04:09;;;;;;;8.85;3.50;;;;;;;;;;5138630;27;20047;-64
2023/03/21 03:07:49;;;;;;;9.32;3.50;;;;;;;;;;5138525;27;20042;-65
2023/03/21 03:11:43;;;;;;;8.52;3.33;;;;;;;;;;5138971;27;20042;-64
2023/03/21 03:14:50;;;;;;;9.02;2.95;;;;;;;;;;5146557;27;20053;-65
2023/03/21 03:18:45;;;;;;;10.02;3.58;;;;;;;;;;5139386;27;20510;-64
2023/03/21 03:22:26;;;;;;;7.72;2.97;;;;;;;;;;5142258;27;20077;-66
2023/03/21 03:25:59;;;;;;;7.18;2.95;;;;;;;;;;5139382;27;20263;-64
2023/03/21 03:29:42;;;;;;;6.57;2.90;;;;;;;;;;5139683;27;20532;-64
2023/03/21 03:33:25;;;;;;;6.85;2.80;;;;;;;;;;5138365;27;20043;-64
2023/03/21 03:37:06;;;;;;;7.32;3.10;;;;;;;;;;5134740;27;20087;-64
2023/03/21 03:40:58;;;;;;;10.77;3.40;;;;;;;;;;5144751;27;20039;-64
2023/03/21 03:44:39;;;;;;;10.70;2.92;;;;;;;;;;5141728;27;20043;-64
2023/03/21 03:47:51;;;;;;;7.28;3.38;;;;;;;;;;5140750;27;20047;-65
2023/03/21 03:51:21;;;;;;;9.30;3.15;;;;;;;;;;5138592;27;20117;-64
2023/03/21 03:55:02;;;;;;;6.70;2.97;;;;;;;;;;5138534;27;20382;-64
2023/03/21 03:58:44;;;;;;;8.80;3.30;;;;;;;;;;5144541;27;20042;-65
2023/03/21 04:02:24;;;;;;;8.30;3.25;;;;;;;;;;5141901;27;20161;-65
2023/03/21 04:06:05;;;;;;;7.35;3.22;;;;;;;;;;5138380;27;20039;-65
2023/03/21 04:09:46;;;;;;;8.00;3.25;;;;;;;;;;5144135;27;20042;-65
2023/03/21 04:13:26;;;;;;;10.57;3.78;;;;;;;;;;5141080;27;20170;-64
2023/03/21 04:17:07;;;;;;;10.68;3.78;;;;;;;;;;5138819;27;20045;-64
2023/03/21 04:20:48;;;;;;;13.93;4.32;;;;;;;;;;5142373;27;20054;-64
2023/03/21 04:24:32;;;;;;;6.78;4.22;;;;;;;;;;5138107;27;20759;-65
2023/03/21 04:28:09;;;;;;;8.98;4.03;;;;;;;;;;5141546;27;20444;-65
2023/03/21 04:31:49;;;;;;;9.68;4.00;;;;;;;;;;5140186;27;20038;-63
2023/03/21 04:35:30;;;;;;;7.05;3.75;;;;;;;;;;5138559;27;20058;-65
2023/03/21 04:39:14;;;;;;;8.45;4.25;;;;;;;;;;5138404;27;20065;-64
2023/03/21 04:42:56;;;;;;;15.23;4.15;;;;;;;;;;5143023;27;20120;-64
2023/03/21 04:46:36;;;;;;;8.73;3.90;;;;;;;;;;5142526;27;20057;-64
2023/03/21 04:50:17;;;;;;;10.07;3.85;;;;;;;;;;5141543;27;20047;-65
2023/03/21 04:53:57;;;;;;;11.38;4.18;;;;;;;;;;5139025;27;20061;-67
2023/03/21 04:57:38;;;;;;;9.35;3.75;;;;;;;;;;5146902;27;20052;-65
2023/03/21 05:01:19;;;;;;;6.13;3.25;;;;;;;;;;5141777;27;20095;-64
2023/03/21 05:04:58;;;;;;;10.02;3.90;;;;;;;;;;5139425;27;20055;-65
2023/03/21 05:08:40;;;;;;;10.52;3.63;;;;;;;;;;5139780;27;20054;-65
2023/03/21 05:12:19;;;;;;;6.82;3.50;;;;;;;;;;5145267;27;20038;-64
2023/03/21 05:15:59;;;;;;;16.10;4.25;;;;;;;;;;5147645;27;20295;-66
2023/03/21 05:19:40;;;;;;;12.43;4.50;;;;;;;;;;5137726;27;20054;-67
2023/03/21 05:23:20;;;;;;;13.82;5.72;;;;;;;;;;5138771;27;20459;-66
2023/03/21 05:27:01;;;;;;;12.60;5.40;;;;;;;;;;5138923;27;20050;-65
2023/03/21 05:30:44;;;;;;;17.65;7.25;;;;;;;;;;5141865;27;20038;-64
2023/03/21 05:34:24;;;;;;;18.70;7.53;;;;;;;;;;5142944;27;20112;-64
2023/03/21 05:38:04;;;;;;;18.13;7.18;;;;;;;;;;5142790;27;20046;-65
2023/03/21 05:41:45;;;;;;;22.02;8.07;;;;;;;;;;5141207;27;20439;-66
2023/03/21 05:45:26;;;;;;;17.92;8.40;;;;;;;;;;5141252;27;20521;-67
2023/03/21 05:49:06;;;;;;;16.63;7.55;;;;;;;;;;5139452;27;20081;-64
2023/03/21 05:52:46;;;;;;;15.50;8.45;;;;;;;;;;5144448;27;20039;-64
2023/03/21 05:56:26;;;;;;;26.88;7.97;;;;;;;;;;5144321;27;20417;-65
2023/03/21 06:00:07;;;;;;;16.98;6.50;;;;;;;;;;5145811;27;20586;-66
2023/03/21 06:03:47;;;;;;;14.02;5.40;;;;;;;;;;5144451;27;20042;-66
2023/03/21 06:07:27;;;;;;;17.88;5.13;;;;;;;;;;5144074;27;20512;-65
2023/03/21 06:11:09;;;;;;;13.93;4.78;;;;;;;;;;5140634;27;20041;-65
2023/03/21 06:14:51;;;;;;;11.02;5.35;;;;;;;;;;5136374;27;20042;-65
2023/03/21 06:18:31;;;;;;;16.70;4.80;;;;;;;;;;5140553;27;20034;-67
2023/03/21 06:22:12;;;;;;;22.55;4.72;;;;;;;;;;5143352;27;20410;-66
2023/03/21 06:25:52;;;;;;;14.55;4.95;;;;;;;;;;5142620;27;20121;-66
2023/03/21 06:29:32;;;;;;;8.73;4.00;;;;;;;;;;5144666;27;20711;-68
2023/03/21 06:33:13;;;;;;;14.75;4.30;;;;;;;;;;5144811;27;20046;-69
2023/03/21 06:36:53;;;;;;;10.45;3.83;;;;;;;;;;5140092;27;20038;-67
2023/03/21 06:40:34;;;;;;;16.85;3.95;;;;;;;;;;5145771;27;20054;-68
2023/03/21 06:44:15;;;;;;;15.23;3.97;;;;;;;;;;5145287;27;20034;-68
2023/03/21 06:47:56;;;;;;;9.70;3.33;;;;;;;;;;5141626;27;20062;-67
2023/03/21 06:51:37;;;;;;;8.10;3.33;;;;;;;;;;5144463;27;20053;-68
2023/03/21 06:55:18;;;;;;;12.05;4.20;;;;;;;;;;5138829;27;20042;-65
2023/03/21 06:58:57;;;;;;;15.65;4.38;;;;;;;;;;5137555;27;20074;-66
2023/03/21 07:02:38;;;;;;;17.25;5.28;;;;;;;;;;5140317;27;20039;-67
2023/03/21 07:06:18;;;;;;;14.80;4.22;;;;;;;;;;5143427;27;20046;-65
2023/03/21 07:10:00;;;;;;;10.27;4.07;;;;;;;;;;5132696;27;20099;-65
2023/03/21 07:13:40;;;;;;;13.63;4.18;;;;;;;;;;5136824;27;20047;-66
2023/03/21 07:17:20;;;;;;;14.93;4.10;;;;;;;;;;5139092;27;20533;-65
2023/03/21 07:21:01;;;;;;;13.38;4.57;;;;;;;;;;5138576;27;20099;-66
2023/03/21 07:24:41;;;;;;;12.00;4.65;;;;;;;;;;5141192;27;20107;-68
2023/03/21 07:28:21;;;;;;;11.00;4.30;;;;;;;;;;5141429;27;20447;-67
2023/03/21 07:32:02;;;;;;;13.93;4.07;;;;;;;;;;5136322;27;20043;-68
2023/03/21 07:35:42;;;;;;;14.55;4.30;;;;;;;;;;5140811;27;20533;-66
2023/03/21 07:39:22;;;;;;;14.52;5.18;;;;;;;;;;5143450;27;20066;-65
2023/03/21 07:43:03;;;;;;;13.43;4.82;;;;;;;;;;5142979;27;20042;-70
2023/03/21 07:46:43;;;;;;;19.70;5.30;;;;;;;;;;5139102;27;20067;-66
2023/03/21 07:50:24;;;;;;;14.68;5.53;;;;;;;;;;5137238;27;20046;-62
2023/03/21 07:54:04;;;;;;;15.95;5.40;;;;;;;;;;5132074;27;20105;-64
2023/03/21 07:57:45;;;;;;;13.80;5.00;;;;;;;;;;5141613;27;20038;-64
2023/03/21 08:01:27;;;;;;;18.65;5.90;;;;;;;;;;5130895;27;20050;-63
2023/03/21 08:05:09;;;;;;;17.55;5.28;;;;;;;;;;5138507;27;20050;-65
2023/03/21 08:08:49;;;;;;;21.75;6.35;;;;;;;;;;5147405;27;20085;-65
2023/03/21 08:12:29;;;;;;;16.75;6.38;;;;;;;;;;5130931;27;20049;-64
2023/03/21 08:16:09;;;;;;;21.88;6.68;;;;;;;;;;5136429;27;20118;-64
2023/03/21 08:19:50;;;;;;;20.15;6.72;;;;;;;;;;5136963;27;20110;-62
2023/03/21 08:23:35;;;;;;;29.42;7.20;;;;;;;;;;5141227;27;20050;-64
2023/03/21 08:27:14;;;;;;;26.45;6.78;;;;;;;;;;5144568;27;20050;-64
2023/03/21 08:30:54;;;;;;;18.83;7.65;;;;;;;;;;5143173;27;20053;-64
2023/03/21 08:34:35;;;;;;;25.17;7.07;;;;;;;;;;5141492;27;20046;-62
2023/03/21 08:38:15;;;;;;;23.42;7.45;;;;;;;;;;5144616;27;20095;-66
2023/03/21 08:41:55;;;;;;;24.33;6.60;;;;;;;;;;5141902;27;20042;-64
2023/03/21 08:45:36;;;;;;;25.15;6.25;;;;;;;;;;5148826;27;20045;-64
2023/03/21 08:49:16;;;;;;;16.95;5.57;;;;;;;;;;5137872;27;20042;-65
2023/03/21 08:52:57;;;;;;;13.13;6.22;;;;;;;;;;5140881;27;20062;-64
2023/03/21 08:56:38;;;;;;;22.58;6.78;;;;;;;;;;5141970;27;20043;-63
2023/03/21 09:00:19;;;;;;;18.63;6.13;;;;;;;;;;5141321;27;20390;-63
2023/03/21 09:03:58;;;;;;;14.80;6.57;;;;;;;;;;5140460;27;20142;-64
2023/03/21 09:07:39;;;;;;;20.83;5.95;;;;;;;;;;5147641;27;20046;-63
2023/03/21 09:11:20;;;;;;;21.75;6.90;;;;;;;;;;5140192;27;20062;-63
2023/03/21 09:15:01;;;;;;;23.38;6.70;;;;;;;;;;5141614;27;20051;-63
2023/03/21 09:18:54;;;;;;;18.63;6.45;;;;;;;;;;5144584;27;20384;-64
2023/03/21 09:22:30;;;;;;;15.43;6.45;;;;;;;;;;5138152;27;20154;-61
2023/03/21 09:26:11;;;;;;;17.70;6.43;;;;;;;;;;5135151;27;20447;-60
2023/03/21 09:29:51;;;;;;;21.38;5.57;;;;;;;;;;5144084;27;20057;-62
2023/03/21 09:33:31;;;;;;;12.05;5.90;;;;;;;;;;5144377;27;20043;-63
2023/03/21 09:37:14;;;;;;;12.98;5.80;;;;;;;;;;5144583;27;20106;-65
2023/03/21 09:40:15;;;;;;;14.20;5.43;;;;;;;;;;5138616;27;20606;-63
2023/03/21 09:42:51;;;;;;;21.13;5.70;;;;;;;;;;5148354;27;20058;-62
2023/03/21 09:45:52;;;;;;;14.40;4.82;;;;;;;;;;5143308;27;20510;-66
2023/03/21 09:49:35;;;;;;;17.73;5.07;;;;;;;;;;5046815;28;20064;-63
2023/03/21 09:52:44;;;;;;;10.02;4.93;;;;;;;;;;5039776;28;20294;-65
2023/03/21 09:56:24;;;;;;;20.98;5.38;;;;;;;;;;5043523;28;20044;-64
2023/03/21 10:00:08;;;;;;;20.40;6.78;;;;;;;;;;5041722;28;20045;-62
2023/03/21 10:03:53;;;;;;;15.95;5.78;;;;;;;;;;5045521;28;20045;-62
2023/03/21 10:07:32;;;;;;;15.75;4.93;;;;;;;;;;5042899;28;20540;-63
2023/03/21 10:11:16;;;;;;;13.50;5.30;;;;;;;;;;5041766;28;20041;-63
2023/03/21 10:14:48;;;;;;;14.55;5.25;;;;;;;;;;5040755;28;20037;-64
2023/03/21 10:18:37;;;;;;;12.43;6.03;;;;;;;;;;5044146;28;20080;-66
2023/03/21 10:22:21;;;;;;;17.25;5.55;;;;;;;;;;5062851;27;20046;-62
2023/03/21 10:26:01;;;;;;;14.15;5.25;;;;;;;;;;5142626;27;20042;-66
2023/03/21 10:29:57;;;;;;;13.30;5.07;;;;;;;;;;5144484;27;20060;-67
2023/03/21 10:33:37;;;;;;;19.70;6.13;;;;;;;;;;5140280;27;20411;-64
2023/03/21 10:37:17;;;;;;;16.70;5.25;;;;;;;;;;5144748;27;20054;-66
2023/03/21 10:40:57;;;;;;;11.45;5.22;;;;;;;;;;5144267;27;20096;-67
2023/03/21 10:44:33;;;;;;;15.13;4.55;;;;;;;;;;5139051;27;20046;-66
2023/03/21 10:48:13;;;;;;;15.30;5.50;;;;;;;;;;5139546;27;20074;-67
2023/03/21 10:51:54;;;;;;;11.32;5.50;;;;;;;;;;5136337;27;20366;-67
2023/03/21 10:55:49;;;;;;;11.27;5.03;;;;;;;;;;5142181;27;20046;-68
2023/03/21 10:59:29;;;;;;;16.17;5.07;;;;;;;;;;5143324;27;20480;-66
2023/03/21 11:03:10;;;;;;;19.67;5.00;;;;;;;;;;5138124;27;20053;-67
2023/03/21 11:06:50;;;;;;;18.27;5.10;;;;;;;;;;5133982;27;20035;-67
2023/03/21 11:10:33;;;;;;;14.15;4.78;;;;;;;;;;5138590;27;20043;-67
2023/03/21 11:14:18;;;;;;;13.48;5.30;;;;;;;;;;5143885;27;20050;-67
2023/03/21 11:17:58;;;;;;;16.08;4.65;;;;;;;;;;5142909;27;20035;-69
2023/03/21 11:21:42;;;;;;;12.05;5.18;;;;;;;;;;5143437;27;20035;-69
2023/03/21 11:25:40;;;;;;;11.35;4.72;;;;;;;;;;5144476;27;20058;-68
2023/03/21 11:29:21;;;;;;;12.52;4.55;;;;;;;;;;5137868;27;20074;-68
2023/03/21 11:32:53;;;;;;;13.40;4.60;;;;;;;;;;5139472;27;20043;-66
2023/03/21 11:36:17;;;;;;;20.95;5.13;;;;;;;;;;5136398;27;20046;-67
2023/03/21 11:39:52;;;;;;;16.38;4.55;;;;;;;;;;5139148;27;20046;-69
2023/03/21 11:43:15;;;;;;;10.93;4.03;;;;;;;;;;5139960;27;20153;-69
2023/03/21 11:46:55;;;;;;;18.10;5.43;;;;;;;;;;5141900;27;20082;-68
2023/03/21 11:50:20;;;;;;;13.55;5.32;;;;;;;;;;5144256;27;20244;-68
2023/03/21 11:54:01;;;;;;;10.32;4.07;;;;;;;;;;5142310;27;20125;-70
2023/03/21 11:57:26;;;;;;;12.77;3.60;;;;;;;;;;5140667;27;20045;-69
2023/03/21 12:01:08;;;;;;;11.38;4.32;;;;;;;;;;5142945;27;20455;-69
2023/03/21 12:04:40;;;;;;;12.55;3.88;;;;;;;;;;5139843;27;20076;-69
2023/03/21 12:08:26;;;;;;;9.43;3.95;;;;;;;;;;5145083;27;20058;-67
2023/03/21 12:11:51;;;;;;;15.82;6.70;;;;;;;;;;5145876;27;20053;-70
2023/03/21 12:15:40;;;;;;;12.10;4.50;;;;;;;;;;5144945;27;20055;-69
2023/03/21 12:18:59;;;;;;;15.65;4.63;;;;;;;;;;5142024;27;20063;-68
2023/03/21 12:22:49;;;;;;;15.25;3.88;;;;;;;;;;5143728;27;20043;-69
2023/03/21 12:26:38;;;;;;;15.52;4.05;;;;;;;;;;5146529;27;20042;-67
2023/03/21 12:30:03;;;;;;;13.25;4.30;;;;;;;;;;5145258;27;20234;-69
2023/03/21 12:33:45;;;;;;;13.07;4.22;;;;;;;;;;5143589;27;20147;-71
2023/03/21 12:36:46;;;;;;;15.63;4.78;;;;;;;;;;5140937;27;20055;-71
2023/03/21 12:40:15;;;;;;;13.50;5.20;;;;;;;;;;5144052;27;20208;-74
2023/03/21 12:43:22;;;;;;;12.30;4.75;;;;;;;;;;5144501;27;20053;-68
2023/03/21 12:47:06;;;;;;;13.90;4.65;;;;;;;;;;5142081;27;20137;-69
2023/03/21 12:50:58;;;;;;;14.85;5.25;;;;;;;;;;5147113;27;20038;-67
2023/03/21 12:54:47;;;;;;;18.00;4.32;;;;;;;;;;5144694;27;20043;-74
2023/03/21 12:58:30;;;;;;;15.90;4.43;;;;;;;;;;5145063;27;20724;-68
2023/03/21 13:02:10;;;;;;;12.00;4.35;;;;;;;;;;5141682;27;20085;-66
2023/03/21 13:06:03;;;;;;;18.13;4.47;;;;;;;;;;5145541;27;20058;-67
2023/03/21 13:09:56;;;;;;;10.50;3.80;;;;;;;;;;5144315;27;20039;-65
2023/03/21 13:13:54;;;;;;;13.02;4.50;;;;;;;;;;5147637;27;20804;-68
2023/03/21 13:17:38;;;;;;;10.05;3.95;;;;;;;;;;5137317;27;20127;-69
2023/03/21 13:21:11;;;;;;;10.15;3.90;;;;;;;;;;5147686;27;20155;-68
2023/03/21 13:24:23;;;;;;;11.50;4.60;;;;;;;;;;5141379;27;20051;-67
2023/03/21 13:28:05;;;;;;;13.82;4.07;;;;;;;;;;5136124;27;20039;-65
2023/03/21 13:31:55;;;;;;;15.45;4.07;;;;;;;;;;5141389;27;20514;-68
2023/03/21 13:35:44;;;;;;;13.90;4.88;;;;;;;;;;5143271;27;20081;-67
2023/03/21 13:39:24;;;;;;;10.30;4.20;;;;;;;;;;5147487;27;20041;-64
2023/03/21 13:43:04;;;;;;;9.70;4.32;;;;;;;;;;5146361;27;20054;-64
2023/03/21 13:46:54;;;;;;;10.85;3.75;;;;;;;;;;5137509;27;20079;-68
2023/03/21 13:50:13;;;;;;;11.32;3.88;;;;;;;;;;5143743;27;20060;-67
2023/03/21 13:53:14;;;;;;;10.63;4.50;;;;;;;;;;5137033;27;20042;-67
2023/03/21 13:56:14;;;;;;;12.38;5.07;;;;;;;;;;5143331;27;20135;-68
2023/03/21 13:59:57;;;;;;;10.23;4.50;;;;;;;;;;5144818;27;20092;-69
2023/03/21 14:03:47;;;;;;;14.65;4.53;;;;;;;;;;5142897;27;20067;-66
2023/03/21 14:07:48;;;;;;;15.25;4.25;;;;;;;;;;5136067;27;20114;-69
2023/03/21 14:11:28;;;;;;;19.60;3.90;;;;;;;;;;5145557;27;20094;-67
2023/03/21 14:15:09;;;;;;;9.82;3.90;;;;;;;;;;5143346;27;20046;-69
2023/03/21 14:18:54;;;;;;;13.13;3.90;;;;;;;;;;5142786;27;20133;-67
2023/03/21 14:22:34;;;;;;;13.65;3.92;;;;;;;;;;5138490;27;20058;-70
2023/03/21 14:26:14;;;;;;;9.05;3.47;;;;;;;;;;5142525;27;20054;-66
2023/03/21 14:29:54;;;;;;;10.52;3.65;;;;;;;;;;5128233;27;20138;-66
2023/03/21 14:33:56;;;;;;;8.88;3.88;;;;;;;;;;5141311;27;20133;-69
2023/03/21 14:37:46;;;;;;;14.05;3.70;;;;;;;;;;5142892;27;20046;-66
2023/03/21 14:41:38;;;;;;;14.20;3.40;;;;;;;;;;5141148;27;20418;-68
2023/03/21 14:45:02;;;;;;;7.88;2.83;;;;;;;;;;5141623;27;20056;-65
2023/03/21 14:48:47;;;;;;;9.60;3.47;;;;;;;;;;5140832;27;20414;-69
2023/03/21 14:52:30;;;;;;;11.40;3.55;;;;;;;;;;5131841;27;20466;-67
2023/03/21 14:55:54;;;;;;;14.10;3.45;;;;;;;;;;5137474;27;20050;-67
2023/03/21 14:59:35;;;;;;;12.25;3.92;;;;;;;;;;5143073;27;20466;-67
2023/03/21 15:03:16;;;;;;;9.57;3.35;;;;;;;;;;5137278;27;20049;-69
2023/03/21 15:06:56;;;;;;;10.10;3.75;;;;;;;;;;5139658;27;20027;-67
2023/03/21 15:10:37;;;;;;;10.45;4.03;;;;;;;;;;5134824;27;20140;-68
2023/03/21 15:14:16;;;;;;;9.18;4.00;;;;;;;;;;5146125;27;20043;-69
2023/03/21 15:17:57;;;;;;;11.30;3.63;;;;;;;;;;5138000;27;20045;-67
2023/03/21 15:21:27;;;;;;;9.05;3.75;;;;;;;;;;5141769;27;20603;-67
2023/03/21 15:25:07;;;;;;;11.18;3.90;;;;;;;;;;5137436;27;20478;-67
2023/03/21 15:28:47;;;;;;;9.52;3.90;;;;;;;;;;5133122;27;20074;-66
2023/03/21 15:32:33;;;;;;;11.68;3.55;;;;;;;;;;5136361;27;20460;-68
2023/03/21 15:36:16;;;;;;;7.78;3.65;;;;;;;;;;5140106;27;20416;-69
2023/03/21 15:39:58;;;;;;;14.85;4.10;;;;;;;;;;5134889;27;20058;-67
2023/03/21 15:43:44;;;;;;;13.90;4.10;;;;;;;;;;5142446;27;20108;-69
2023/03/21 15:47:25;;;;;;;14.15;3.53;;;;;;;;;;5142709;27;20045;-68
2023/03/21 15:51:11;;;;;;;12.13;5.15;;;;;;;;;;5133832;27;20522;-70
2023/03/21 15:55:08;;;;;;;10.18;3.88;;;;;;;;;;5141675;27;20510;-68
2023/03/21 15:58:53;;;;;;;14.52;4.15;;;;;;;;;;5142104;27;20039;-68
2023/03/21 16:02:39;;;;;;;12.18;4.40;;;;;;;;;;5133798;27;20053;-68
2023/03/21 16:05:59;;;;;;;;;;;;;;;;;;5139825;27;20043;-66
2023/03/21 16:09:23;;;;;;;9.05;3.75;;;;;;;;;;5137055;27;19927;-69
2023/03/21 16:13:05;;;;;;;12.77;3.60;;;;;;;;;;5135800;27;20043;-69
2023/03/21 16:16:45;;;;;;;7.07;3.17;;;;;;;;;;5144284;27;20046;-68
2023/03/21 16:20:31;;;;;;;11.70;3.33;;;;;;;;;;5138102;27;20686;-70
2023/03/21 16:24:12;;;;;;;13.60;3.78;;;;;;;;;;5141121;27;20193;-68
2023/03/21 16:27:53;;;;;;;9.20;3.33;;;;;;;;;;5137151;27;20548;-68
2023/03/21 16:31:34;;;;;;;8.77;2.80;;;;;;;;;;5136492;27;20081;-67
2023/03/21 16:35:14;;;;;;;11.88;3.60;;;;;;;;;;5138956;27;20129;-65
2023/03/21 16:38:55;;;;;;;9.68;3.50;;;;;;;;;;5142052;27;20136;-67
2023/03/21 16:42:36;;;;;;;9.25;3.30;;;;;;;;;;5140036;27;20499;-67
2023/03/21 16:46:16;;;;;;;12.35;3.60;;;;;;;;;;5140224;27;20051;-68
2023/03/21 16:49:56;;;;;;;9.82;3.45;;;;;;;;;;5137456;27;20042;-67
2023/03/21 16:53:37;;;;;;;10.98;3.60;;;;;;;;;;5144944;27;20042;-66
2023/03/21 16:57:17;;;;;;;12.93;3.90;;;;;;;;;;5143139;27;20054;-66
2023/03/21 17:00:57;;;;;;;10.57;3.63;;;;;;;;;;5140472;27;20038;-66
2023/03/21 17:03:58;;;;;;;9.73;3.80;;;;;;;;;;5143930;27;20541;-65
2023/03/21 17:06:28;;;;;;;8.43;3.80;;;;;;;;;;5144038;27;20062;-66
2023/03/21 17:08:55;;;;;;;13.85;4.82;;;;;;;;;;5122072;27;20042;-65
2023/03/21 17:11:24;;;;;;;13.75;5.15;;;;;;;;;;5149059;27;20482;-66
2023/03/21 17:13:52;;;;;;;14.20;5.28;;;;;;;;;;5147403;27;20076;-70
2023/03/21 17:16:22;;;;;;;14.25;5.68;;;;;;;;;;5142608;27;20031;-66
2023/03/21 17:18:49;;;;;;;10.68;5.30;;;;;;;;;;5140032;27;20049;-67
2023/03/21 17:21:19;;;;;;;12.20;5.65;;;;;;;;;;5108257;27;20043;-64
2023/03/21 17:23:47;;;;;;;13.65;6.30;;;;;;;;;;5144514;27;20035;-65
2023/03/21 17:26:24;;;;;;;13.13;6.18;;;;;;;;;;5139746;27;20380;-63
2023/03/21 17:28:51;;;;;;;15.77;6.40;;;;;;;;;;5143068;27;20093;-65
2023/03/21 17:31:20;;;;;;;13.40;6.47;;;;;;;;;;5130444;27;20043;-68
2023/03/21 17:33:49;;;;;;;14.90;6.68;;;;;;;;;;5145974;27;20059;-67
2023/03/21 17:36:34;;;;;;;11.93;6.80;;;;;;;;;;5145402;27;20038;-66
2023/03/21 17:39:01;;;;;;;14.82;6.68;;;;;;;;;;5130273;27;20122;-66
2023/03/21 17:41:28;;;;;;;16.13;7.40;;;;;;;;;;5145709;27;20042;-64
2023/03/21 17:43:55;;;;;;;14.90;8.38;;;;;;;;;;5129785;27;20047;-64
2023/03/21 17:46:24;;;;;;;13.68;7.85;;;;;;;;;;5141097;27;20047;-63
2023/03/21 17:48:51;;;;;;;14.25;7.85;;;;;;;;;;5145813;27;20047;-65
2023/03/21 17:51:17;;;;;;;17.95;8.10;;;;;;;;;;5130896;27;20046;-67
2023/03/21 17:53:45;;;;;;;14.60;8.52;;;;;;;;;;5150065;27;20146;-67
2023/03/21 17:56:20;;;;;;;15.07;8.38;;;;;;;;;;5149024;27;20034;-67
2023/03/21 17:58:47;;;;;;;20.65;7.72;;;;;;;;;;5145457;27;20050;-66
2023/03/21 18:01:14;;;;;;;16.88;8.65;;;;;;;;;;5148788;27;20053;-66
2023/03/21 18:03:40;;;;;;;18.50;8.55;;;;;;;;;;5149313;27;20043;-68
2023/03/21 18:06:13;;;;;;;18.23;9.43;;;;;;;;;;5147126;27;20062;-65
2023/03/21 18:09:19;;;;;;;12.75;8.98;;;;;;;;;;5149411;27;20448;-66
2023/03/21 18:13:00;;;;;;;16.40;9.48;;;;;;;;;;5140320;27;20051;-65
2023/03/21 18:16:41;;;;;;;18.98;10.07;;;;;;;;;;5138921;27;20051;-66
2023/03/21 18:20:22;;;;;;;13.85;8.52;;;;;;;;;;5145732;27;20092;-67
2023/03/21 18:24:04;;;;;;;15.40;8.65;;;;;;;;;;5145158;27;20047;-64
2023/03/21 18:27:45;;;;;;;14.75;8.70;;;;;;;;;;5138969;27;20057;-67
2023/03/21 18:31:26;;;;;;;24.70;9.65;;;;;;;;;;5144648;27;20070;-67
2023/03/21 18:35:09;;;;;;;25.08;8.85;;;;;;;;;;5137463;27;20510;-69
2023/03/21 18:38:47;;;;;;;19.35;9.60;;;;;;;;;;5144040;27;20122;-68
2023/03/21 18:42:27;;;;;;;17.77;10.05;;;;;;;;;;5144060;27;20492;-67
2023/03/21 18:46:08;;;;;;;17.92;9.95;;;;;;;;;;5143855;27;20035;-65
2023/03/21 18:49:51;;;;;;;20.35;10.23;;;;;;;;;;5140265;27;20039;-68
2023/03/21 18:53:31;;;;;;;18.90;9.98;;;;;;;;;;5140667;27;20038;-65
2023/03/21 18:57:11;;;;;;;19.20;10.15;;;;;;;;;;5138758;27;20053;-67
2023/03/21 19:00:52;;;;;;;18.75;10.05;;;;;;;;;;5140048;27;20065;-67
2023/03/21 19:04:32;;;;;;;22.60;11.05;;;;;;;;;;5141529;27;20039;-66
2023/03/21 19:08:12;;;;;;;18.30;10.77;;;;;;;;;;5140829;27;20494;-67
2023/03/21 19:11:53;;;;;;;20.00;10.32;;;;;;;;;;5140795;27;20042;-66
2023/03/21 19:15:33;;;;;;;20.33;9.85;;;;;;;;;;5143268;27;20418;-67
2023/03/21 19:19:17;;;;;;;20.42;10.48;;;;;;;;;;5140409;27;20487;-67
2023/03/21 19:22:56;;;;;;;15.32;9.85;;;;;;;;;;5138914;27;20054;-68
2023/03/21 19:26:37;;;;;;;17.33;9.82;;;;;;;;;;5138826;27;20047;-67
2023/03/21 19:30:17;;;;;;;16.23;10.00;;;;;;;;;;5141985;27;20038;-67
2023/03/21 19:33:57;;;;;;;16.33;10.30;;;;;;;;;;5139955;27;20038;-66
2023/03/21 19:37:39;;;;;;;23.23;11.48;;;;;;;;;;5134870;27;20089;-66
2023/03/21 19:40:53;;;;;;;17.98;10.40;;;;;;;;;;5138349;27;20395;-67
2023/03/21 19:44:34;;;;;;;19.83;10.95;;;;;;;;;;5143293;27;20797;-68
2023/03/21 19:48:14;;;;;;;23.77;12.32;;;;;;;;;;5129679;27;20045;-68
2023/03/21 19:51:55;;;;;;;24.30;12.82;;;;;;;;;;5127685;27;20043;-66
2023/03/21 19:55:35;;;;;;;21.45;12.75;;;;;;;;;;5128933;27;20526;-68
2023/03/21 19:59:16;;;;;;;23.25;13.90;;;;;;;;;;5123442;27;21496;-68
2023/03/21 20:02:55;;;;;;;25.77;14.25;;;;;;;;;;5123675;27;20317;-65
2023/03/21 20:06:42;;;;;;;24.00;14.32;;;;;;;;;;5128016;27;20035;-66
2023/03/21 20:10:27;;;;;;;28.45;14.82;;;;;;;;;;5127141;27;20039;-66
2023/03/21 20:13:29;;;;;;;23.38;14.95;;;;;;;;;;5126726;27;20194;-66
2023/03/21 20:16:40;;;;;;;27.60;14.77;;;;;;;;;;5104550;27;20059;-65